Anyang, China
Current Conditions -  °F | °C
As of 2:00 AM on Monday 26 Jan 2015 (Local Time) from ZHCC Reporting Station
Haze Haze  
Wind Chill: 30°   Ceiling: 3000
Heat Index: 34°   Visibility: 0.62mi
Dew Point: 32°   Wind: 4mph
Humidity: 93%   Direction: 190°S
Pressure: 30.24"   Gusts: NA
Location:  36.08°N, 114.35°E
Report Text: ZHCC 251800Z 19002MPS 140V220 1000 R30/1100V1200N BROVC03001/M00 Q1024 NOSIG
Loading
Personal Weather Stations






























Interactive Weather Map New forecast layout! Learn more

10-Day Weather Forecast

Advertisements
Track Severe Weather on mobile